sensor_id;sensor_type;location;lat;lon;timestamp;pressure;altitude;pressure_sealevel;temperature;humidity
64675;BME280;51090;51.512;11.332;2022-07-29T00:01:25;99530.97;;;17.51;43.92
64675;BME280;51090;51.512;11.332;2022-07-29T00:03:51;99527.25;;;17.52;43.67
64675;BME280;51090;51.512;11.332;2022-07-29T00:06:17;99529.91;;;17.52;43.99
64675;BME280;51090;51.512;11.332;2022-07-29T00:08:43;99532.59;;;17.52;44.05
64675;BME280;51090;51.512;11.332;2022-07-29T00:11:09;99529.91;;;17.52;44.04
64675;BME280;51090;51.512;11.332;2022-07-29T00:13:35;99522.94;;;17.51;43.80
64675;BME280;51090;51.512;11.332;2022-07-29T00:16:01;99517.13;;;17.54;43.62
64675;BME280;51090;51.512;11.332;2022-07-29T00:18:27;99514.22;;;17.55;43.86
64675;BME280;51090;51.512;11.332;2022-07-29T00:20:53;99508.03;;;17.55;43.93
64675;BME280;51090;51.512;11.332;2022-07-29T00:23:19;99504.75;;;17.53;43.93
64675;BME280;51090;51.512;11.332;2022-07-29T00:25:45;99497.31;;;17.55;43.58
64675;BME280;51090;51.512;11.332;2022-07-29T00:28:11;99497.31;;;17.55;43.79
64675;BME280;51090;51.512;11.332;2022-07-29T00:30:37;99490.31;;;17.54;43.63
64675;BME280;51090;51.512;11.332;2022-07-29T00:33:03;99492.38;;;17.52;43.84
64675;BME280;51090;51.512;11.332;2022-07-29T00:35:30;99496.72;;;17.53;43.76
64675;BME280;51090;51.512;11.332;2022-07-29T00:38:16;99498.00;;;17.50;44.08
64675;BME280;51090;51.512;11.332;2022-07-29T00:40:44;99493.91;;;17.48;43.88
64675;BME280;51090;51.512;11.332;2022-07-29T00:43:10;99494.94;;;17.47;43.97
64675;BME280;51090;51.512;11.332;2022-07-29T00:45:36;99486.34;;;17.45;43.87
64675;BME280;51090;51.512;11.332;2022-07-29T00:48:04;99488.88;;;17.39;44.35
64675;BME280;51090;51.512;11.332;2022-07-29T00:50:31;99486.75;;;17.41;44.39
64675;BME280;51090;51.512;11.332;2022-07-29T00:52:58;99482.47;;;17.40;44.21
64675;BME280;51090;51.512;11.332;2022-07-29T00:55:24;99485.75;;;17.42;43.80
64675;BME280;51090;51.512;11.332;2022-07-29T00:57:50;99485.13;;;17.40;44.02
64675;BME280;51090;51.512;11.332;2022-07-29T01:00:25;99473.59;;;17.40;44.34
64675;BME280;51090;51.512;11.332;2022-07-29T01:02:52;99468.47;;;17.38;43.95
64675;BME280;51090;51.512;11.332;2022-07-29T01:05:23;99470.53;;;17.36;44.18
64675;BME280;51090;51.512;11.332;2022-07-29T01:07:52;99468.94;;;17.35;43.83
64675;BME280;51090;51.512;11.332;2022-07-29T01:10:19;99461.34;;;17.32;44.29
64675;BME280;51090;51.512;11.332;2022-07-29T01:12:49;99462.38;;;17.31;44.32
64675;BME280;51090;51.512;11.332;2022-07-29T01:15:16;99460.75;;;17.30;43.97
64675;BME280;51090;51.512;11.332;2022-07-29T01:23:11;99455.34;;;17.18;44.41
64675;BME280;51090;51.512;11.332;2022-07-29T01:34:03;99446.59;;;17.11;44.70
64675;BME280;51090;51.512;11.332;2022-07-29T01:36:55;99438.78;;;17.10;45.17
64675;BME280;51090;51.512;11.332;2022-07-29T01:39:31;99439.84;;;17.09;45.03
64675;BME280;51090;51.512;11.332;2022-07-29T01:42:26;99431.53;;;17.10;45.21
64675;BME280;51090;51.512;11.332;2022-07-29T01:48:03;99424.91;;;17.13;45.05
64675;BME280;51090;51.512;11.332;2022-07-29T01:51:19;99431.09;;;17.13;44.67
64675;BME280;51090;51.512;11.332;2022-07-29T01:53:37;99427.00;;;17.11;45.16
64675;BME280;51090;51.512;11.332;2022-07-29T01:56:06;99422.84;;;17.15;44.46
64675;BME280;51090;51.512;11.332;2022-07-29T01:58:35;99427.97;;;17.16;44.59
64675;BME280;51090;51.512;11.332;2022-07-29T02:01:05;99424.84;;;17.19;44.60
64675;BME280;51090;51.512;11.332;2022-07-29T02:03:36;99425.78;;;17.25;44.52
64675;BME280;51090;51.512;11.332;2022-07-29T02:06:04;99426.13;;;17.29;44.44
64675;BME280;51090;51.512;11.332;2022-07-29T02:08:32;99425.44;;;17.33;44.38
64675;BME280;51090;51.512;11.332;2022-07-29T02:11:01;99417.19;;;17.35;44.59
64675;BME280;51090;51.512;11.332;2022-07-29T02:13:29;99420.22;;;17.38;44.14
64675;BME280;51090;51.512;11.332;2022-07-29T02:15:57;99418.34;;;17.39;44.21
64675;BME280;51090;51.512;11.332;2022-07-29T02:18:25;99410.09;;;17.40;44.35
64675;BME280;51090;51.512;11.332;2022-07-29T02:20:56;99411.97;;;17.40;44.07
64675;BME280;51090;51.512;11.332;2022-07-29T02:23:24;99408.22;;;17.41;44.05
64675;BME280;51090;51.512;11.332;2022-07-29T02:25:55;99404.72;;;17.40;44.51
64675;BME280;51090;51.512;11.332;2022-07-29T02:28:27;99402.84;;;17.41;44.11
64675;BME280;51090;51.512;11.332;2022-07-29T02:31:00;99401.44;;;17.38;44.48
64675;BME280;51090;51.512;11.332;2022-07-29T02:33:27;99398.19;;;17.36;44.24
64675;BME280;51090;51.512;11.332;2022-07-29T02:35:57;99394.09;;;17.34;44.03
64675;BME280;51090;51.512;11.332;2022-07-29T02:38:25;99400.72;;;17.31;44.51
64675;BME280;51090;51.512;11.332;2022-07-29T02:41:15;99392.94;;;17.30;44.35
64675;BME280;51090;51.512;11.332;2022-07-29T02:43:44;99399.31;;;17.29;44.28
64675;BME280;51090;51.512;11.332;2022-07-29T02:46:17;99402.84;;;17.29;44.48
64675;BME280;51090;51.512;11.332;2022-07-29T02:48:50;99407.22;;;17.24;44.69
64675;BME280;51090;51.512;11.332;2022-07-29T02:51:23;99402.72;;;17.24;44.66
64675;BME280;51090;51.512;11.332;2022-07-29T02:53:54;99399.91;;;17.19;44.97
64675;BME280;51090;51.512;11.332;2022-07-29T02:56:25;99399.31;;;17.17;44.84
64675;BME280;51090;51.512;11.332;2022-07-29T02:58:58;99399.31;;;17.17;44.63
64675;BME280;51090;51.512;11.332;2022-07-29T03:01:27;99406.06;;;17.19;44.58
64675;BME280;51090;51.512;11.332;2022-07-29T03:03:56;99405.47;;;17.17;44.47
64675;BME280;51090;51.512;11.332;2022-07-29T03:06:24;99400.72;;;17.19;44.60
64675;BME280;51090;51.512;11.332;2022-07-29T03:08:51;99407.47;;;17.22;44.40
64675;BME280;51090;51.512;11.332;2022-07-29T03:11:18;99414.84;;;17.27;44.73
64675;BME280;51090;51.512;11.332;2022-07-29T03:13:45;99421.59;;;17.29;44.42
64675;BME280;51090;51.512;11.332;2022-07-29T03:16:11;99423.00;;;17.32;44.15
64675;BME280;51090;51.512;11.332;2022-07-29T03:18:38;99417.19;;;17.35;44.09
64675;BME280;51090;51.512;11.332;2022-07-29T03:21:05;99408.34;;;17.34;44.25
64675;BME280;51090;51.512;11.332;2022-07-29T03:23:31;99406.69;;;17.33;44.48
64675;BME280;51090;51.512;11.332;2022-07-29T03:25:57;99411.22;;;17.33;44.24
64675;BME280;51090;51.512;11.332;2022-07-29T03:28:23;99411.69;;;17.30;44.47
64675;BME280;51090;51.512;11.332;2022-07-29T03:30:50;99416.47;;;17.28;44.19
64675;BME280;51090;51.512;11.332;2022-07-29T03:33:16;99415.66;;;17.27;44.65
64675;BME280;51090;51.512;11.332;2022-07-29T03:35:42;99420.41;;;17.25;44.51
64675;BME280;51090;51.512;11.332;2022-07-29T03:38:08;99423.09;;;17.25;44.47
64675;BME280;51090;51.512;11.332;2022-07-29T03:40:58;99415.53;;;17.22;44.63
64675;BME280;51090;51.512;11.332;2022-07-29T03:43:32;99424.97;;;17.25;44.74
64675;BME280;51090;51.512;11.332;2022-07-29T03:46:00;99422.03;;;17.26;44.37
64675;BME280;51090;51.512;11.332;2022-07-29T03:48:29;99419.59;;;17.25;44.48
64675;BME280;51090;51.512;11.332;2022-07-29T03:50:56;99416.47;;;17.28;44.50
64675;BME280;51090;51.512;11.332;2022-07-29T03:53:23;99411.78;;;17.23;44.68
64675;BME280;51090;51.512;11.332;2022-07-29T03:55:52;99417.38;;;17.22;44.78
64675;BME280;51090;51.512;11.332;2022-07-29T03:58:19;99414.13;;;17.19;44.51
64675;BME280;51090;51.512;11.332;2022-07-29T04:00:46;99413.06;;;17.20;44.86
64675;BME280;51090;51.512;11.332;2022-07-29T04:03:13;99414.47;;;17.23;44.67
64675;BME280;51090;51.512;11.332;2022-07-29T04:05:39;99411.56;;;17.25;44.72
64675;BME280;51090;51.512;11.332;2022-07-29T04:08:06;99414.47;;;17.23;44.79
64675;BME280;51090;51.512;11.332;2022-07-29T04:10:32;99413.06;;;17.20;44.71
64675;BME280;51090;51.512;11.332;2022-07-29T04:12:59;99409.66;;;17.13;45.50
64675;BME280;51090;51.512;11.332;2022-07-29T04:15:25;99403.75;;;17.23;44.96
64675;BME280;51090;51.512;11.332;2022-07-29T04:17:53;99402.25;;;17.27;44.88
64675;BME280;51090;51.512;11.332;2022-07-29T04:20:19;99409.38;;;17.33;44.60
64675;BME280;51090;51.512;11.332;2022-07-29T04:22:45;99406.81;;;17.38;44.43
64675;BME280;51090;51.512;11.332;2022-07-29T04:25:12;99399.50;;;17.46;44.63
64675;BME280;51090;51.512;11.332;2022-07-29T04:27:38;99398.34;;;17.53;44.62
64675;BME280;51090;51.512;11.332;2022-07-29T04:30:24;99401.59;;;17.55;44.57
64675;BME280;51090;51.512;11.332;2022-07-29T04:32:50;99397.19;;;17.61;44.44
64675;BME280;51090;51.512;11.332;2022-07-29T04:35:16;99401.03;;;17.65;44.20
64675;BME280;51090;51.512;11.332;2022-07-29T04:37:42;99409.22;;;17.70;43.97
64675;BME280;51090;51.512;11.332;2022-07-29T04:40:09;99414.09;;;17.73;43.87
64675;BME280;51090;51.512;11.332;2022-07-29T04:42:35;99406.19;;;17.78;44.01
64675;BME280;51090;51.512;11.332;2022-07-29T04:45:03;99411.44;;;17.85;43.99
64675;BME280;51090;51.512;11.332;2022-07-29T04:47:29;99414.50;;;17.89;43.71
64675;BME280;51090;51.512;11.332;2022-07-29T04:49:55;99411.34;;;17.92;43.79
64675;BME280;51090;51.512;11.332;2022-07-29T04:52:22;99411.47;;;17.97;43.67
64675;BME280;51090;51.512;11.332;2022-07-29T04:54:49;99411.56;;;18.02;43.43
64675;BME280;51090;51.512;11.332;2022-07-29T04:57:15;99407.94;;;18.08;43.60
64675;BME280;51090;51.512;11.332;2022-07-29T04:59:41;99411.47;;;18.09;43.42
64675;BME280;51090;51.512;11.332;2022-07-29T05:02:07;99416.34;;;18.12;43.52
64675;BME280;51090;51.512;11.332;2022-07-29T05:04:33;99411.09;;;18.17;43.40
64675;BME280;51090;51.512;11.332;2022-07-29T05:06:59;99411.44;;;18.20;43.53
64675;BME280;51090;51.512;11.332;2022-07-29T05:09:25;99414.00;;;18.27;43.43
64675;BME280;51090;51.512;11.332;2022-07-29T05:11:51;99406.88;;;18.33;43.22
64675;BME280;51090;51.512;11.332;2022-07-29T05:14:17;99403.22;;;18.39;43.18
64675;BME280;51090;51.512;11.332;2022-07-29T05:16:43;99402.03;;;18.46;42.95
64675;BME280;51090;51.512;11.332;2022-07-29T05:19:10;99396.09;;;18.44;43.11
64675;BME280;51090;51.512;11.332;2022-07-29T05:21:36;99393.56;;;18.38;43.08
64675;BME280;51090;51.512;11.332;2022-07-29T05:24:02;99395.66;;;18.36;43.03
64675;BME280;51090;51.512;11.332;2022-07-29T05:26:28;99396.13;;;18.33;43.05
64675;BME280;51090;51.512;11.332;2022-07-29T05:28:54;99395.53;;;18.31;43.23
64675;BME280;51090;51.512;11.332;2022-07-29T05:31:20;99396.47;;;18.36;43.09
64675;BME280;51090;51.512;11.332;2022-07-29T05:33:46;99408.09;;;18.54;43.31
64675;BME280;51090;51.512;11.332;2022-07-29T05:36:12;99402.09;;;18.75;43.13
64675;BME280;51090;51.512;11.332;2022-07-29T05:38:38;99401.34;;;18.91;42.38
64675;BME280;51090;51.512;11.332;2022-07-29T05:41:05;99407.00;;;19.07;42.15
64675;BME280;51090;51.512;11.332;2022-07-29T05:43:31;99411.19;;;19.31;41.84
64675;BME280;51090;51.512;11.332;2022-07-29T05:45:58;99416.78;;;19.58;41.46
64675;BME280;51090;51.512;11.332;2022-07-29T05:48:24;99407.47;;;19.66;40.79
64675;BME280;51090;51.512;11.332;2022-07-29T05:50:51;99407.41;;;19.78;40.56
64675;BME280;51090;51.512;11.332;2022-07-29T05:53:17;99415.16;;;19.91;40.61
64675;BME280;51090;51.512;11.332;2022-07-29T05:55:43;99413.09;;;19.98;40.49
64675;BME280;51090;51.512;11.332;2022-07-29T05:58:09;99405.34;;;20.02;40.20
64675;BME280;51090;51.512;11.332;2022-07-29T06:00:35;99409.66;;;20.03;40.43
64675;BME280;51090;51.512;11.332;2022-07-29T06:03:01;99413.00;;;20.10;40.22
64675;BME280;51090;51.512;11.332;2022-07-29T06:05:27;99411.69;;;20.13;40.00
64675;BME280;51090;51.512;11.332;2022-07-29T06:07:53;99419.38;;;20.04;39.96
64675;BME280;51090;51.512;11.332;2022-07-29T06:10:19;99416.94;;;20.02;40.27
64675;BME280;51090;51.512;11.332;2022-07-29T06:12:45;99414.25;;;20.02;40.12
64675;BME280;51090;51.512;11.332;2022-07-29T06:15:11;99409.75;;;20.08;39.92
64675;BME280;51090;51.512;11.332;2022-07-29T06:17:37;99409.56;;;20.15;40.34
64675;BME280;51090;51.512;11.332;2022-07-29T06:20:04;99405.88;;;20.21;40.05
64675;BME280;51090;51.512;11.332;2022-07-29T06:22:30;99402.13;;;20.22;40.47
64675;BME280;51090;51.512;11.332;2022-07-29T06:24:56;99413.16;;;20.20;40.48
64675;BME280;51090;51.512;11.332;2022-07-29T06:27:22;99411.91;;;20.28;40.24
64675;BME280;51090;51.512;11.332;2022-07-29T06:29:48;99401.13;;;20.28;39.85
64675;BME280;51090;51.512;11.332;2022-07-29T06:32:14;99405.50;;;20.34;39.69
64675;BME280;51090;51.512;11.332;2022-07-29T06:34:40;99405.50;;;20.34;39.71
64675;BME280;51090;51.512;11.332;2022-07-29T06:37:07;99406.00;;;20.31;39.99
64675;BME280;51090;51.512;11.332;2022-07-29T06:39:36;99412.41;;;20.25;40.17
64675;BME280;51090;51.512;11.332;2022-07-29T06:42:04;99409.78;;;20.30;39.94
64675;BME280;51090;51.512;11.332;2022-07-29T06:44:30;99410.44;;;20.20;39.98
64675;BME280;51090;51.512;11.332;2022-07-29T06:46:57;99411.63;;;20.08;39.99
64675;BME280;51090;51.512;11.332;2022-07-29T06:49:23;99416.84;;;19.97;40.13
64675;BME280;51090;51.512;11.332;2022-07-29T06:51:51;99408.72;;;19.92;40.56
64675;BME280;51090;51.512;11.332;2022-07-29T06:54:17;99404.97;;;19.76;40.83
64675;BME280;51090;51.512;11.332;2022-07-29T06:56:44;99403.97;;;19.66;40.90
64675;BME280;51090;51.512;11.332;2022-07-29T06:59:11;99406.91;;;19.64;41.15
64675;BME280;51090;51.512;11.332;2022-07-29T07:01:39;99406.00;;;19.58;41.12
64675;BME280;51090;51.512;11.332;2022-07-29T07:04:06;99399.97;;;19.51;41.23
64675;BME280;51090;51.512;11.332;2022-07-29T07:06:32;99401.94;;;19.56;41.38
64675;BME280;51090;51.512;11.332;2022-07-29T07:08:58;99406.78;;;19.71;41.41
64675;BME280;51090;51.512;11.332;2022-07-29T07:11:24;99409.84;;;19.96;41.25
64675;BME280;51090;51.512;11.332;2022-07-29T07:13:50;99405.16;;;20.09;40.72
64675;BME280;51090;51.512;11.332;2022-07-29T07:16:16;99409.38;;;20.21;40.37
64675;BME280;51090;51.512;11.332;2022-07-29T07:18:42;99404.53;;;20.40;40.29
64675;BME280;51090;51.512;11.332;2022-07-29T07:21:11;99402.91;;;20.61;39.96
64675;BME280;51090;51.512;11.332;2022-07-29T07:23:37;99405.84;;;20.82;39.76
64675;BME280;51090;51.512;11.332;2022-07-29T07:26:03;99403.94;;;21.04;39.61
64675;BME280;51090;51.512;11.332;2022-07-29T07:28:31;99396.56;;;21.27;39.41
64675;BME280;51090;51.512;11.332;2022-07-29T07:30:57;99399.00;;;21.50;38.99
64675;BME280;51090;51.512;11.332;2022-07-29T07:33:23;99404.09;;;21.84;38.53
64675;BME280;51090;51.512;11.332;2022-07-29T07:35:50;99390.06;;;22.25;38.13
64675;BME280;51090;51.512;11.332;2022-07-29T07:38:16;99395.09;;;22.69;37.50
64675;BME280;51090;51.512;11.332;2022-07-29T07:40:42;99387.38;;;23.18;36.74
64675;BME280;51090;51.512;11.332;2022-07-29T07:43:08;99388.75;;;23.82;35.98
64675;BME280;51090;51.512;11.332;2022-07-29T07:45:34;99386.97;;;24.32;34.88
64675;BME280;51090;51.512;11.332;2022-07-29T07:48:03;99399.34;;;24.69;34.04
64675;BME280;51090;51.512;11.332;2022-07-29T07:50:29;99386.56;;;24.75;33.70
64675;BME280;51090;51.512;11.332;2022-07-29T07:52:55;99387.66;;;24.74;33.70
64675;BME280;51090;51.512;11.332;2022-07-29T07:55:25;99388.38;;;24.90;33.57
64675;BME280;51090;51.512;11.332;2022-07-29T07:57:51;99380.09;;;25.10;33.17
64675;BME280;51090;51.512;11.332;2022-07-29T08:00:17;99372.16;;;25.24;32.94
64675;BME280;51090;51.512;11.332;2022-07-29T08:02:44;99374.56;;;25.31;32.91
64675;BME280;51090;51.512;11.332;2022-07-29T08:05:11;99384.22;;;25.42;32.67
64675;BME280;51090;51.512;11.332;2022-07-29T08:07:38;99372.34;;;25.33;32.51
64675;BME280;51090;51.512;11.332;2022-07-29T08:10:05;99378.88;;;25.32;31.99
64675;BME280;51090;51.512;11.332;2022-07-29T08:12:31;99372.97;;;25.25;32.49
64675;BME280;51090;51.512;11.332;2022-07-29T08:14:57;99381.13;;;25.19;32.56
64675;BME280;51090;51.512;11.332;2022-07-29T08:17:23;99380.09;;;25.10;32.57
64675;BME280;51090;51.512;11.332;2022-07-29T08:19:49;99384.25;;;24.97;32.82
64675;BME280;51090;51.512;11.332;2022-07-29T08:22:15;99378.63;;;24.84;32.77
64675;BME280;51090;51.512;11.332;2022-07-29T08:24:42;99380.91;;;24.71;33.08
64675;BME280;51090;51.512;11.332;2022-07-29T08:27:22;99382.91;;;24.45;33.57
64675;BME280;51090;51.512;11.332;2022-07-29T08:29:48;99384.84;;;24.24;33.68
64675;BME280;51090;51.512;11.332;2022-07-29T08:32:15;99383.31;;;23.93;33.88
64675;BME280;51090;51.512;11.332;2022-07-29T08:34:41;99389.81;;;23.81;34.50
64675;BME280;51090;51.512;11.332;2022-07-29T08:37:07;99389.56;;;23.78;34.80
64675;BME280;51090;51.512;11.332;2022-07-29T08:39:33;99382.25;;;23.78;34.72
64675;BME280;51090;51.512;11.332;2022-07-29T08:41:59;99387.09;;;23.86;34.81
64675;BME280;51090;51.512;11.332;2022-07-29T08:44:25;99390.63;;;24.02;34.53
64675;BME280;51090;51.512;11.332;2022-07-29T08:46:52;99382.16;;;24.14;34.48
64675;BME280;51090;51.512;11.332;2022-07-29T08:49:18;99393.28;;;24.18;34.50
64675;BME280;51090;51.512;11.332;2022-07-29T08:51:44;99386.22;;;24.17;34.06
64675;BME280;51090;51.512;11.332;2022-07-29T08:54:12;99387.59;;;24.14;34.08
64675;BME280;51090;51.512;11.332;2022-07-29T08:56:41;99383.81;;;24.15;34.30
64675;BME280;51090;51.512;11.332;2022-07-29T08:59:08;99382.13;;;24.24;34.38
64675;BME280;51090;51.512;11.332;2022-07-29T09:01:37;99376.69;;;24.34;34.14
64675;BME280;51090;51.512;11.332;2022-07-29T09:04:08;99383.72;;;24.46;33.86
64675;BME280;51090;51.512;11.332;2022-07-29T09:06:42;99372.84;;;24.56;33.77
64675;BME280;51090;51.512;11.332;2022-07-29T09:09:08;99374.41;;;24.67;33.41
64675;BME280;51090;51.512;11.332;2022-07-29T09:11:35;99370.03;;;24.76;33.25
64675;BME280;51090;51.512;11.332;2022-07-29T09:14:01;99364.84;;;24.80;33.52
64675;BME280;51090;51.512;11.332;2022-07-29T09:16:54;99368.81;;;24.93;32.22
64675;BME280;51090;51.512;11.332;2022-07-29T09:19:29;99362.47;;;25.13;33.04
64675;BME280;51090;51.512;11.332;2022-07-29T09:21:57;99368.78;;;25.37;32.08
64675;BME280;51090;51.512;11.332;2022-07-29T09:26:59;99360.44;;;25.92;31.30
64675;BME280;51090;51.512;11.332;2022-07-29T09:29:25;99355.75;;;26.22;31.35
64675;BME280;51090;51.512;11.332;2022-07-29T09:31:54;99346.06;;;26.59;30.71
64675;BME280;51090;51.512;11.332;2022-07-29T09:34:26;99340.03;;;27.00;30.11
64675;BME280;51090;51.512;11.332;2022-07-29T09:36:54;99345.94;;;27.40;29.59
64675;BME280;51090;51.512;11.332;2022-07-29T09:39:32;99346.13;;;27.62;28.85
64675;BME280;51090;51.512;11.332;2022-07-29T09:42:00;99340.75;;;27.71;27.62
64675;BME280;51090;51.512;11.332;2022-07-29T09:44:27;99342.38;;;27.72;28.40
64675;BME280;51090;51.512;11.332;2022-07-29T09:47:05;99346.50;;;27.69;28.16
64675;BME280;51090;51.512;11.332;2022-07-29T09:49:55;99345.50;;;27.51;28.18
64675;BME280;51090;51.512;11.332;2022-07-29T09:52:25;99343.50;;;27.38;28.24
64675;BME280;51090;51.512;11.332;2022-07-29T09:54:51;99338.75;;;27.30;28.92
64675;BME280;51090;51.512;11.332;2022-07-29T09:57:27;99342.00;;;27.13;28.30
64675;BME280;51090;51.512;11.332;2022-07-29T10:00:14;99342.91;;;26.89;28.52
64675;BME280;51090;51.512;11.332;2022-07-29T10:02:42;99344.09;;;26.83;29.58
64675;BME280;51090;51.512;11.332;2022-07-29T10:05:30;99342.91;;;26.89;29.57
64675;BME280;51090;51.512;11.332;2022-07-29T10:07:56;99350.50;;;26.92;29.49
64675;BME280;51090;51.512;11.332;2022-07-29T10:12:56;99328.44;;;26.75;28.40
64675;BME280;51090;51.512;11.332;2022-07-29T10:15:24;99336.53;;;26.80;28.98
64675;BME280;51090;51.512;11.332;2022-07-29T10:17:52;99334.00;;;26.84;29.27
64675;BME280;51090;51.512;11.332;2022-07-29T10:20:19;99335.19;;;26.97;28.89
64675;BME280;51090;51.512;11.332;2022-07-29T10:22:47;99336.94;;;27.06;28.40
64675;BME280;51090;51.512;11.332;2022-07-29T10:25:15;99330.91;;;27.28;28.70
64675;BME280;51090;51.512;11.332;2022-07-29T10:27:42;99333.38;;;27.57;28.21
64675;BME280;51090;51.512;11.332;2022-07-29T10:30:10;99331.47;;;27.72;27.59
64675;BME280;51090;51.512;11.332;2022-07-29T10:33:01;99342.59;;;27.75;27.03
64675;BME280;51090;51.512;11.332;2022-07-29T10:35:58;99329.91;;;27.85;27.01
64675;BME280;51090;51.512;11.332;2022-07-29T10:44:24;99321.31;;;28.83;25.60
64675;BME280;51090;51.512;11.332;2022-07-29T10:46:52;99321.72;;;29.13;26.36
64675;BME280;51090;51.512;11.332;2022-07-29T10:49:24;99321.72;;;29.13;26.01
64675;BME280;51090;51.512;11.332;2022-07-29T11:07:32;99326.78;;;29.82;25.00
64675;BME280;51090;51.512;11.332;2022-07-29T11:15:05;99312.53;;;29.93;24.88
64675;BME280;51090;51.512;11.332;2022-07-29T11:20:46;99330.97;;;29.79;24.35
64675;BME280;51090;51.512;11.332;2022-07-29T11:23:32;99324.34;;;29.71;25.12
64675;BME280;51090;51.512;11.332;2022-07-29T11:28:48;99323.41;;;29.53;25.09
64675;BME280;51090;51.512;11.332;2022-07-29T11:31:19;99326.28;;;29.48;25.48
64675;BME280;51090;51.512;11.332;2022-07-29T11:33:45;99318.22;;;29.21;25.79
64675;BME280;51090;51.512;11.332;2022-07-29T11:36:13;99323.56;;;29.03;26.23
64675;BME280;51090;51.512;11.332;2022-07-29T11:38:40;99321.53;;;29.09;26.46
64675;BME280;51090;51.512;11.332;2022-07-29T11:43:52;99316.38;;;29.30;26.39
64675;BME280;51090;51.512;11.332;2022-07-29T11:49:23;99310.88;;;29.52;25.31
64675;BME280;51090;51.512;11.332;2022-07-29T11:51:54;99302.97;;;29.73;26.00
64675;BME280;51090;51.512;11.332;2022-07-29T11:54:33;99307.34;;;29.83;24.91
64675;BME280;51090;51.512;11.332;2022-07-29T11:57:00;99314.41;;;29.84;25.71
64675;BME280;51090;51.512;11.332;2022-07-29T11:59:26;99302.69;;;29.92;25.48
64675;BME280;51090;51.512;11.332;2022-07-29T12:01:57;99300.97;;;30.05;25.51
64675;BME280;51090;51.512;11.332;2022-07-29T12:04:24;99302.63;;;30.15;25.35
64675;BME280;51090;51.512;11.332;2022-07-29T12:06:50;99294.56;;;30.10;25.45
64675;BME280;51090;51.512;11.332;2022-07-29T12:09:18;99295.47;;;29.88;25.22
64675;BME280;51090;51.512;11.332;2022-07-29T12:11:44;99291.69;;;29.66;25.51
64675;BME280;51090;51.512;11.332;2022-07-29T12:14:28;99288.97;;;29.44;25.51
64675;BME280;51090;51.512;11.332;2022-07-29T12:16:55;99291.44;;;29.23;25.83
64675;BME280;51090;51.512;11.332;2022-07-29T12:19:21;99282.25;;;28.96;26.01
64675;BME280;51090;51.512;11.332;2022-07-29T12:21:49;99292.28;;;28.87;26.01
64675;BME280;51090;51.512;11.332;2022-07-29T12:24:16;99290.69;;;28.86;26.17
64675;BME280;51090;51.512;11.332;2022-07-29T12:26:58;99291.47;;;28.86;26.32
64675;BME280;51090;51.512;11.332;2022-07-29T12:29:25;99279.25;;;28.84;25.82
64675;BME280;51090;51.512;11.332;2022-07-29T12:31:53;99281.44;;;28.96;26.49
64675;BME280;51090;51.512;11.332;2022-07-29T12:34:22;99282.31;;;29.05;26.03
64675;BME280;51090;51.512;11.332;2022-07-29T12:36:49;99276.56;;;29.06;25.92
64675;BME280;51090;51.512;11.332;2022-07-29T12:39:18;99275.56;;;28.80;24.93
64675;BME280;51090;51.512;11.332;2022-07-29T12:41:45;99270.09;;;28.80;25.63
64675;BME280;51090;51.512;11.332;2022-07-29T12:44:11;99272.31;;;28.78;25.64
64675;BME280;51090;51.512;11.332;2022-07-29T12:46:37;99270.69;;;28.77;25.66
64675;BME280;51090;51.512;11.332;2022-07-29T12:49:04;99263.81;;;28.79;25.05
64675;BME280;51090;51.512;11.332;2022-07-29T12:51:32;99266.38;;;28.76;24.80
64675;BME280;51090;51.512;11.332;2022-07-29T12:54:04;99257.19;;;28.72;24.44
64675;BME280;51090;51.512;11.332;2022-07-29T12:56:31;99257.19;;;28.72;25.45
64675;BME280;51090;51.512;11.332;2022-07-29T12:58:57;99255.84;;;28.83;25.98
64675;BME280;51090;51.512;11.332;2022-07-29T13:01:23;99249.63;;;28.91;25.92
64675;BME280;51090;51.512;11.332;2022-07-29T13:03:57;99248.19;;;28.94;24.51
64675;BME280;51090;51.512;11.332;2022-07-29T13:06:43;99247.06;;;28.95;25.04
64675;BME280;51090;51.512;11.332;2022-07-29T13:09:36;99248.50;;;28.92;24.60
64675;BME280;51090;51.512;11.332;2022-07-29T13:12:07;99240.63;;;28.91;25.52
64675;BME280;51090;51.512;11.332;2022-07-29T13:14:35;99245.25;;;28.90;25.71
64675;BME280;51090;51.512;11.332;2022-07-29T13:17:07;99240.31;;;28.92;25.17
64675;BME280;51090;51.512;11.332;2022-07-29T13:19:43;99246.56;;;28.93;24.71
64675;BME280;51090;51.512;11.332;2022-07-29T13:22:12;99241.09;;;28.93;24.11
64675;BME280;51090;51.512;11.332;2022-07-29T13:27:13;99232.13;;;28.92;24.70
64675;BME280;51090;51.512;11.332;2022-07-29T13:29:39;99231.50;;;28.95;24.53
64675;BME280;51090;51.512;11.332;2022-07-29T13:32:06;99241.88;;;29.07;25.09
64675;BME280;51090;51.512;11.332;2022-07-29T13:34:33;99233.25;;;29.14;24.22
64675;BME280;51090;51.512;11.332;2022-07-29T13:36:59;99221.63;;;29.08;24.22
64675;BME280;51090;51.512;11.332;2022-07-29T13:39:25;99221.97;;;29.06;24.77
64675;BME280;51090;51.512;11.332;2022-07-29T13:41:51;99228.03;;;29.03;25.48
64675;BME280;51090;51.512;11.332;2022-07-29T13:44:18;99226.22;;;28.99;25.03
64675;BME280;51090;51.512;11.332;2022-07-29T13:46:44;99219.47;;;28.96;25.75
64675;BME280;51090;51.512;11.332;2022-07-29T13:49:10;99221.19;;;29.15;24.84
64675;BME280;51090;51.512;11.332;2022-07-29T13:51:37;99220.22;;;29.42;23.92
64675;BME280;51090;51.512;11.332;2022-07-29T13:54:03;99210.41;;;29.81;23.87
64675;BME280;51090;51.512;11.332;2022-07-29T13:56:30;99212.84;;;30.00;23.62
64675;BME280;51090;51.512;11.332;2022-07-29T13:58:56;99203.38;;;30.06;23.37
64675;BME280;51090;51.512;11.332;2022-07-29T14:01:23;99213.81;;;30.21;23.53